Time;durP1;ratioP1;P1;durP2;ratioP2;P2;SDS_P1;SDS_P2;PMS_P1;PMS_P2;Temp;Humidity;BMP_temperature;BMP_pressure;BME280_temperature;BME280_humidity;BME280_pressure;Samples;Min_cycle;Max_cycle;Signal;HPM_P1;HPM_P2
2023/03/14 05:01:31;;;;;;;1.75;1.42;;;10.70;99.90;;;;;;5420667;23;20240;-69
2023/03/14 05:03:58;;;;;;;0.55;0.55;;;10.80;99.90;;;;;;4933324;29;20670;-69
2023/03/14 05:06:25;;;;;;;1.25;1.23;;;10.80;99.90;;;;;;4933259;29;20210;-69
2023/03/14 05:08:51;;;;;;;0.40;0.40;;;10.90;99.90;;;;;;4924285;29;20211;-69
2023/03/14 05:11:18;;;;;;;3.25;0.98;;;11.00;99.90;;;;;;4925090;29;20237;-69
2023/03/14 05:13:45;;;;;;;1.58;0.70;;;11.00;99.90;;;;;;4912192;29;20221;-69
2023/03/14 05:16:12;;;;;;;2.65;1.20;;;11.00;99.90;;;;;;4907886;29;20209;-68
2023/03/14 05:18:40;;;;;;;0.40;0.40;;;11.00;99.90;;;;;;4905305;29;20596;-68
2023/03/14 05:21:07;;;;;;;0.75;0.63;;;11.00;99.90;;;;;;4918903;29;20322;-68
2023/03/14 05:23:34;;;;;;;0.20;0.20;;;10.90;99.90;;;;;;4908289;29;20221;-69
2023/03/14 05:26:00;;;;;;;0.85;0.80;;;11.00;99.90;;;;;;4920660;29;20222;-69
2023/03/14 05:28:28;;;;;;;0.52;0.52;;;11.00;99.90;;;;;;4912432;29;20648;-69
2023/03/14 05:30:54;;;;;;;0.40;0.40;;;11.00;99.90;;;;;;4912050;29;20322;-69
2023/03/14 05:33:21;;;;;;;0.85;0.52;;;11.00;99.90;;;;;;4907882;29;20221;-69
2023/03/14 05:35:49;;;;;;;0.55;0.55;;;10.90;99.90;;;;;;4919080;29;20694;-69
2023/03/14 05:38:16;;;;;;;0.90;0.60;;;10.90;99.90;;;;;;4909706;29;20227;-70
2023/03/14 05:40:43;;;;;;;1.00;0.80;;;10.90;99.90;;;;;;4907293;29;20595;-70
2023/03/14 05:43:09;;;;;;;0.80;0.80;;;10.90;99.90;;;;;;4911653;29;20206;-68
2023/03/14 05:45:36;;;;;;;6.47;1.60;;;10.90;99.90;;;;;;4903618;29;20207;-71
2023/03/14 05:48:03;;;;;;;1.00;1.00;;;10.80;99.90;;;;;;4903305;29;20218;-71
2023/03/14 05:50:30;;;;;;;1.40;1.23;;;10.80;99.90;;;;;;4910368;29;20199;-68
2023/03/14 05:52:58;;;;;;;0.60;0.60;;;10.70;99.90;;;;;;4914183;29;20210;-69
2023/03/14 05:55:24;;;;;;;5.22;1.17;;;10.70;99.90;;;;;;4918193;29;20209;-70
2023/03/14 05:57:51;;;;;;;1.42;0.73;;;10.60;99.90;;;;;;4912385;29;20687;-69
2023/03/14 06:00:19;;;;;;;0.68;0.68;;;10.60;99.90;;;;;;4914343;29;20230;-69
2023/03/14 06:02:46;;;;;;;0.30;0.30;;;10.60;99.90;;;;;;4914826;29;20217;-69
2023/03/14 06:05:12;;;;;;;0.55;0.55;;;10.60;99.90;;;;;;4912820;29;20666;-70
2023/03/14 06:07:39;;;;;;;0.70;0.70;;;10.60;99.90;;;;;;4910663;29;20210;-70
2023/03/14 06:10:08;;;;;;;0.68;0.68;;;10.60;99.90;;;;;;4908859;29;20282;-69
2023/03/14 06:12:34;;;;;;;2.70;0.90;;;10.60;99.90;;;;;;4913123;29;20297;-69
2023/03/14 06:15:01;;;;;;;1.02;1.00;;;10.60;99.90;;;;;;4911400;29;20210;-69
2023/03/14 06:17:28;;;;;;;1.15;1.15;;;10.60;99.90;;;;;;4907512;29;20238;-69
2023/03/14 06:19:54;;;;;;;1.02;0.60;;;10.60;99.90;;;;;;4903593;29;20262;-69
2023/03/14 06:22:21;;;;;;;0.68;0.68;;;10.60;99.90;;;;;;4912688;29;20245;-69
2023/03/14 06:24:48;;;;;;;0.98;0.98;;;10.60;99.90;;;;;;4910302;29;20226;-70
2023/03/14 06:27:16;;;;;;;0.85;0.85;;;10.60;99.90;;;;;;4908473;29;20214;-70
2023/03/14 06:29:43;;;;;;;0.30;0.30;;;10.60;99.90;;;;;;4915216;29;20213;-70
2023/03/14 06:32:09;;;;;;;2.92;0.70;;;10.60;99.90;;;;;;4908672;29;20227;-70
2023/03/14 06:34:36;;;;;;;0.38;0.38;;;10.70;99.90;;;;;;4910428;29;20230;-69
2023/03/14 06:37:03;;;;;;;0.60;0.52;;;10.80;99.90;;;;;;4913134;29;20696;-69
2023/03/14 06:39:31;;;;;;;0.70;0.40;;;10.70;99.90;;;;;;4911268;29;20211;-71
2023/03/14 06:41:58;;;;;;;0.57;0.40;;;10.70;99.90;;;;;;4910640;29;20227;-70
2023/03/14 06:44:26;;;;;;;0.85;0.70;;;10.70;99.90;;;;;;4898265;29;20620;-69
2023/03/14 06:46:52;;;;;;;0.70;0.70;;;10.60;99.90;;;;;;4908944;29;20230;-69
2023/03/14 06:49:19;;;;;;;1.15;0.57;;;10.60;99.90;;;;;;4911633;29;20671;-70
2023/03/14 06:51:46;;;;;;;5.20;1.27;;;10.60;99.90;;;;;;4901224;29;20303;-71
2023/03/14 06:54:12;;;;;;;3.60;1.75;;;10.70;99.90;;;;;;4902128;29;20215;-70
2023/03/14 06:56:39;;;;;;;2.47;2.20;;;10.70;99.90;;;;;;4913586;29;20210;-70
2023/03/14 06:59:06;;;;;;;3.97;1.95;;;10.60;99.90;;;;;;4913952;29;20237;-70
2023/03/14 07:01:34;;;;;;;12.65;6.85;;;10.60;99.90;;;;;;4909641;29;20331;-68
2023/03/14 07:04:01;;;;;;;2.22;2.08;;;10.60;99.90;;;;;;4905095;29;20207;-69
2023/03/14 07:06:29;;;;;;;9.75;3.08;;;10.60;99.90;;;;;;4920048;29;20214;-69
2023/03/14 07:08:56;;;;;;;4.95;3.22;;;10.60;99.90;;;;;;4903431;29;20202;-69
2023/03/14 07:11:24;;;;;;;0.85;0.80;;;10.60;99.90;;;;;;4910865;29;20318;-68
2023/03/14 07:13:51;;;;;;;0.85;0.85;;;10.60;99.90;;;;;;4912185;29;20218;-69
2023/03/14 07:16:17;;;;;;;2.08;1.42;;;10.60;99.90;;;;;;4914446;29;20222;-70
2023/03/14 07:18:45;;;;;;;4.82;1.60;;;10.50;99.90;;;;;;4918839;29;20418;-69
2023/03/14 07:21:13;;;;;;;12.77;5.65;;;10.50;99.90;;;;;;4925518;29;20230;-69
2023/03/14 07:23:40;;;;;;;3.90;2.20;;;10.50;99.90;;;;;;4918842;29;20293;-69
2023/03/14 07:26:07;;;;;;;1.38;0.95;;;10.40;99.90;;;;;;4914434;29;20293;-69
2023/03/14 07:28:34;;;;;;;2.67;2.58;;;10.40;99.90;;;;;;4916833;29;20199;-69
2023/03/14 07:31:01;;;;;;;1.42;1.42;;;10.40;99.90;;;;;;4917792;29;20741;-69
2023/03/14 07:33:27;;;;;;;1.50;1.25;;;10.40;99.90;;;;;;4910120;29;20237;-70
2023/03/14 07:35:55;;;;;;;0.80;0.80;;;10.30;99.90;;;;;;4911050;29;20214;-69
2023/03/14 07:38:22;;;;;;;0.93;0.93;;;10.30;99.90;;;;;;4914198;29;20576;-69
2023/03/14 07:40:49;;;;;;;1.80;1.38;;;10.30;99.90;;;;;;4904887;29;20692;-70
2023/03/14 07:43:16;;;;;;;0.98;0.98;;;10.40;99.90;;;;;;4918205;29;20210;-69
2023/03/14 07:45:46;;;;;;;2.65;1.33;;;10.40;99.90;;;;;;4911482;29;20211;-70
2023/03/14 07:48:12;;;;;;;1.10;1.05;;;10.40;99.90;;;;;;4918544;29;20214;-70
2023/03/14 07:50:39;;;;;;;1.05;0.93;;;10.50;99.90;;;;;;4910570;29;20227;-70
2023/03/14 07:53:07;;;;;;;1.15;1.15;;;10.60;99.90;;;;;;4914601;29;20217;-70
2023/03/14 07:55:34;;;;;;;0.80;0.80;;;10.60;99.90;;;;;;4917848;29;20214;-69
2023/03/14 07:58:01;;;;;;;0.90;0.90;;;10.70;99.90;;;;;;4918731;29;20689;-70
2023/03/14 08:00:28;;;;;;;1.38;1.27;;;10.70;99.90;;;;;;4919957;29;20238;-70
2023/03/14 08:02:55;;;;;;;5.95;3.10;;;10.80;99.90;;;;;;4920663;29;20647;-70
2023/03/14 08:05:21;;;;;;;0.70;0.63;;;10.90;99.90;;;;;;4918046;29;20210;-70
2023/03/14 08:07:48;;;;;;;2.28;1.20;;;11.00;99.90;;;;;;4918951;29;20462;-69
2023/03/14 08:10:21;;;;;;;1.60;0.90;;;11.10;99.90;;;;;;4917515;29;20275;-70
2023/03/14 08:12:48;;;;;;;3.30;2.03;;;11.20;99.90;;;;;;4905085;29;20238;-68
2023/03/14 08:15:15;;;;;;;3.70;2.40;;;11.30;99.90;;;;;;4913794;29;20466;-70
2023/03/14 08:17:42;;;;;;;4.83;2.27;;;11.40;99.90;;;;;;4907988;29;20490;-70
2023/03/14 08:20:11;;;;;;;4.03;1.20;;;11.50;99.90;;;;;;4907298;29;20463;-69
2023/03/14 08:22:38;;;;;;;2.67;1.10;;;11.60;99.90;;;;;;4903318;29;20489;-69
2023/03/14 08:25:06;;;;;;;2.10;1.33;;;11.70;99.90;;;;;;4913161;29;20949;-70
2023/03/14 08:27:34;;;;;;;1.33;1.20;;;11.80;99.90;;;;;;4908800;29;20462;-70
2023/03/14 08:30:00;;;;;;;5.20;1.20;;;11.70;99.90;;;;;;4921124;29;20482;-70
2023/03/14 08:32:27;;;;;;;0.60;0.60;;;11.70;99.90;;;;;;4914230;29;20854;-69
2023/03/14 08:34:54;;;;;;;0.83;0.83;;;11.80;99.90;;;;;;4913474;29;20481;-70
2023/03/14 08:37:20;;;;;;;2.37;1.00;;;11.80;99.90;;;;;;4911171;29;20518;-70
2023/03/14 08:39:47;;;;;;;2.20;1.57;;;11.90;99.90;;;;;;4907613;29;20478;-69
2023/03/14 08:42:14;;;;;;;1.20;1.20;;;11.90;99.90;;;;;;4915960;29;20494;-70
2023/03/14 08:44:42;;;;;;;9.53;2.57;;;11.90;99.90;;;;;;4908149;29;20491;-70
2023/03/14 08:47:09;;;;;;;2.33;2.00;;;11.90;99.90;;;;;;4916743;29;20502;-70
2023/03/14 08:49:35;;;;;;;1.10;1.10;;;12.00;99.90;;;;;;4910763;29;20968;-69
2023/03/14 08:52:03;;;;;;;0.73;0.50;;;12.10;99.90;;;;;;4909274;29;20512;-68
2023/03/14 08:54:29;;;;;;;1.17;1.03;;;12.20;99.90;;;;;;4918110;29;20562;-68
2023/03/14 08:56:56;;;;;;;0.90;0.90;;;12.20;99.90;;;;;;4909360;29;20788;-69
2023/03/14 08:59:23;;;;;;;1.70;1.60;;;12.30;99.90;;;;;;4912669;29;20498;-69
2023/03/14 09:01:51;;;;;;;2.37;1.47;;;12.30;99.90;;;;;;4915045;29;20490;-70
2023/03/14 09:04:18;;;;;;;2.93;1.10;;;12.30;99.90;;;;;;4910589;29;20478;-70
2023/03/14 09:06:45;;;;;;;1.30;1.30;;;12.30;99.90;;;;;;4916639;29;20471;-71
2023/03/14 09:09:13;;;;;;;1.50;1.40;;;12.30;99.90;;;;;;4930176;29;20512;-70
2023/03/14 09:11:39;;;;;;;2.63;1.07;;;12.40;99.90;;;;;;4920069;29;20975;-71
2023/03/14 09:14:06;;;;;;;1.00;1.00;;;12.60;99.90;;;;;;4930092;29;20470;-70
2023/03/14 09:16:34;;;;;;;14.03;1.57;;;12.70;99.90;;;;;;4908345;29;20953;-71
2023/03/14 09:19:02;;;;;;;1.10;1.07;;;12.70;99.90;;;;;;4909621;29;20493;-71
2023/03/14 09:21:29;;;;;;;2.97;2.83;;;12.80;99.90;;;;;;4919676;29;20493;-71
2023/03/14 09:23:55;;;;;;;3.03;0.60;;;12.80;99.90;;;;;;4923030;29;20534;-71
2023/03/14 09:26:22;;;;;;;1.70;1.00;;;12.80;99.90;;;;;;4909554;29;20475;-71
2023/03/14 09:28:49;;;;;;;2.07;1.37;;;12.80;99.90;;;;;;4915807;29;20473;-70
2023/03/14 09:31:16;;;;;;;1.33;1.23;;;12.80;99.90;;;;;;4911011;29;20527;-71
2023/03/14 09:33:42;;;;;;;0.50;0.50;;;12.80;99.90;;;;;;4913493;29;20932;-70
2023/03/14 09:36:11;;;;;;;0.60;0.60;;;12.70;99.90;;;;;;4917825;29;20847;-70
2023/03/14 09:38:38;;;;;;;0.60;0.60;;;12.60;99.90;;;;;;4913758;29;21029;-70
2023/03/14 09:41:15;;;;;;;1.33;1.23;;;12.60;99.90;;;;;;4923940;29;21108;-70
2023/03/14 09:43:46;;;;;;;0.57;0.40;;;12.60;99.90;;;;;;4914936;29;20474;-70
2023/03/14 09:46:14;;;;;;;0.63;0.63;;;12.70;99.90;;;;;;4918238;29;20490;-70
2023/03/14 09:48:42;;;;;;;1.07;0.67;;;12.70;99.90;;;;;;4908405;29;20470;-71
2023/03/14 09:51:15;;;;;;;0.50;0.50;;;12.80;99.90;;;;;;4909484;29;20901;-71
2023/03/14 09:53:44;;;;;;;0.83;0.83;;;12.80;99.90;;;;;;4912028;29;20466;-72
2023/03/14 09:56:14;;;;;;;1.73;0.83;;;12.90;99.90;;;;;;4909706;29;20525;-72
2023/03/14 09:58:43;;;;;;;0.63;0.63;;;13.00;99.90;;;;;;4910866;29;20581;-70
2023/03/14 10:01:14;;;;;;;1.20;1.20;;;13.00;99.90;;;;;;4926068;29;20580;-71
2023/03/14 10:03:43;;;;;;;0.30;0.30;;;12.90;99.90;;;;;;4913046;29;20490;-70
2023/03/14 10:06:13;;;;;;;0.37;0.37;;;13.00;99.90;;;;;;4910038;29;20489;-70
2023/03/14 10:08:41;;;;;;;0.60;0.60;;;13.10;99.90;;;;;;4916634;29;20541;-70
2023/03/14 10:11:10;;;;;;;1.93;1.83;;;13.30;99.90;;;;;;4909276;29;20492;-70
2023/03/14 10:13:48;;;;;;;1.37;1.27;;;13.40;99.90;;;;;;4906730;29;21034;-72
2023/03/14 10:16:15;;;;;;;0.60;0.40;;;13.40;99.90;;;;;;4915420;29;20473;-72
2023/03/14 10:18:45;;;;;;;0.43;0.43;;;13.30;99.90;;;;;;4914597;29;20854;-70
2023/03/14 10:21:26;;;;;;;0.30;0.30;;;13.30;99.90;;;;;;4914451;29;20495;-71
2023/03/14 10:23:53;;;;;;;2.67;0.43;;;13.20;99.90;;;;;;4908981;29;20489;-72
2023/03/14 10:26:25;;;;;;;0.70;0.70;;;13.00;99.90;;;;;;4909407;29;20467;-70
2023/03/14 10:28:55;;;;;;;0.37;0.37;;;13.00;99.90;;;;;;4914153;29;20462;-70
2023/03/14 10:31:26;;;;;;;0.20;0.20;;;12.80;99.90;;;;;;4907897;29;20490;-72
2023/03/14 10:34:00;;;;;;;0.67;0.67;;;12.60;99.90;;;;;;4920351;29;20505;-70
2023/03/14 10:36:30;;;;;;;3.40;0.47;;;12.30;99.90;;;;;;4923246;29;20466;-70
2023/03/14 10:39:05;;;;;;;0.20;0.20;;;12.10;99.90;;;;;;4905372;29;20492;-70
2023/03/14 10:41:34;;;;;;;0.63;0.63;;;11.90;99.90;;;;;;4911907;29;20824;-69
2023/03/14 10:44:02;;;;;;;0.20;0.20;;;11.80;99.90;;;;;;4907900;29;20471;-69
2023/03/14 10:46:33;;;;;;;0.60;0.30;;;11.60;99.90;;;;;;4910543;29;20471;-69
2023/03/14 10:49:04;;;;;;;0.30;0.30;;;11.50;99.90;;;;;;4912549;29;20218;-70
2023/03/14 10:51:32;;;;;;;0.30;0.30;;;11.40;99.90;;;;;;4909927;29;20226;-68
2023/03/14 10:54:00;;;;;;;0.20;0.20;;;11.40;99.90;;;;;;4918289;29;20214;-69
2023/03/14 10:56:28;;;;;;;0.57;0.40;;;11.30;99.90;;;;;;4918408;29;20703;-69
2023/03/14 10:58:58;;;;;;;0.50;0.50;;;10.80;99.90;;;;;;4911757;29;20226;-69
2023/03/14 11:01:37;;;;;;;0.30;0.30;;;10.20;99.90;;;;;;4910306;29;20252;-70
2023/03/14 11:04:15;;;;;;;0.20;0.20;;;9.50;99.90;;;;;;4911044;29;20233;-70
2023/03/14 11:06:49;;;;;;;0.30;0.30;;;9.00;99.90;;;;;;4916985;29;20201;-70
2023/03/14 11:09:24;;;;;;;0.40;0.40;;;8.90;99.90;;;;;;4912438;29;20211;-71
2023/03/14 11:11:51;;;;;;;0.20;0.20;;;8.90;99.90;;;;;;4915405;29;20225;-70
2023/03/14 11:14:29;;;;;;;0.22;0.22;;;8.80;99.90;;;;;;4909504;29;20262;-70
2023/03/14 11:17:03;;;;;;;0.70;0.70;;;8.60;99.90;;;;;;4918929;29;20667;-70
2023/03/14 11:19:56;;;;;;;0.80;0.80;;;8.50;99.90;;;;;;4908598;29;20652;-69
2023/03/14 11:22:34;;;;;;;1.17;0.63;;;8.40;99.90;;;;;;4928903;29;20653;-70
2023/03/14 11:25:25;;;;;;;1.17;1.17;;;8.30;99.90;;;;;;4910694;29;20210;-70
2023/03/14 11:28:00;;;;;;;1.10;1.00;;;8.10;99.90;;;;;;4914953;29;20207;-69
2023/03/14 11:30:34;;;;;;;0.57;0.57;;;8.10;99.90;;;;;;4904526;29;20749;-71
2023/03/14 11:33:08;;;;;;;1.40;1.30;;;7.90;99.90;;;;;;4912270;29;20206;-69
2023/03/14 11:35:41;;;;;;;1.00;0.25;;;7.70;99.90;;;;;;4911055;29;20690;-72
2023/03/14 11:38:28;;;;;;;0.85;0.68;;;7.60;99.90;;;;;;4910410;29;20226;-70
2023/03/14 11:40:57;;;;;;;0.60;0.60;;;7.50;99.90;;;;;;4913243;29;20580;-69
2023/03/14 11:43:29;;;;;;;0.20;0.20;;;7.20;99.90;;;;;;4911789;29;20206;-69
2023/03/14 11:46:02;;;;;;;0.20;0.20;;;7.00;99.90;;;;;;4922989;29;20218;-71
2023/03/14 11:48:38;;;;;;;0.20;0.20;;;6.80;99.90;;;;;;4905188;29;20606;-70
2023/03/14 11:51:13;;;;;;;0.20;0.20;;;6.60;99.90;;;;;;4908627;29;20225;-71
2023/03/14 11:53:51;;;;;;;0.65;0.65;;;6.50;99.90;;;;;;4920048;29;20213;-71
2023/03/14 11:56:26;;;;;;;0.30;0.30;;;6.40;99.90;;;;;;4919190;29;20224;-71
2023/03/14 11:58:59;;;;;;;1.00;0.30;;;6.40;99.90;;;;;;4920700;29;20458;-71
2023/03/14 12:01:37;;;;;;;0.10;0.10;;;6.40;99.90;;;;;;4911197;29;20241;-71
2023/03/14 12:04:10;;;;;;;1.55;0.60;;;6.30;99.90;;;;;;4914795;29;20217;-70
2023/03/14 12:06:41;;;;;;;0.30;0.30;;;6.20;99.90;;;;;;4908007;29;20620;-70
2023/03/14 12:09:10;;;;;;;0.20;0.20;;;6.20;99.90;;;;;;4910942;29;20629;-70
2023/03/14 12:11:42;;;;;;;0.20;0.20;;;6.20;99.90;;;;;;4904512;29;20266;-70
2023/03/14 12:14:21;;;;;;;0.10;0.10;;;6.20;99.90;;;;;;4915556;29;20211;-70
2023/03/14 12:16:49;;;;;;;0.20;0.20;;;6.20;99.90;;;;;;4915822;29;20214;-71
2023/03/14 12:19:29;;;;;;;0.20;0.20;;;6.10;99.90;;;;;;4919937;29;20250;-71
2023/03/14 12:21:59;;;;;;;0.10;0.10;;;6.00;99.90;;;;;;4927323;29;20238;-70
2023/03/14 12:24:30;;;;;;;0.20;0.20;;;5.90;99.90;;;;;;4915119;29;20217;-70
2023/03/14 12:26:58;;;;;;;0.10;0.10;;;5.90;99.90;;;;;;4915365;29;20210;-71
2023/03/14 12:29:25;;;;;;;0.20;0.20;;;5.70;99.90;;;;;;4915930;29;20217;-70
2023/03/14 12:32:09;;;;;;;0.55;0.55;;;5.70;99.90;;;;;;4915926;29;20400;-71
2023/03/14 12:34:41;;;;;;;3.22;1.00;;;5.70;99.90;;;;;;4911376;29;20203;-72
2023/03/14 12:37:25;;;;;;;0.10;0.10;;;5.60;99.90;;;;;;4913162;29;20246;-69
2023/03/14 12:40:08;;;;;;;0.85;0.40;;;5.60;99.90;;;;;;4919963;29;20223;-70
2023/03/14 12:42:52;;;;;;;0.88;0.88;;;5.60;99.90;;;;;;4915712;29;20660;-70
2023/03/14 12:45:28;;;;;;;0.10;0.10;;;5.60;99.90;;;;;;4915893;29;20203;-70
2023/03/14 12:48:01;;;;;;;0.10;0.10;;;5.70;99.90;;;;;;4902841;29;20533;-69
2023/03/14 12:50:35;;;;;;;0.20;0.20;;;5.70;99.90;;;;;;4921080;29;20249;-70
2023/03/14 12:53:52;;;;;;;0.30;0.30;;;5.60;99.90;;;;;;4925604;29;20210;-72
2023/03/14 12:56:29;;;;;;;1.10;1.00;;;5.60;99.90;;;;;;4920316;29;20217;-71
2023/03/14 12:59:14;;;;;;;0.10;0.10;;;5.60;99.90;;;;;;4919097;29;20706;-71
2023/03/14 13:01:49;;;;;;;1.10;0.63;;;5.50;99.90;;;;;;4910321;29;20238;-70
2023/03/14 13:04:15;;;;;;;0.22;0.22;;;5.50;99.90;;;;;;4910531;29;20392;-69
2023/03/14 13:06:56;;;;;;;0.40;0.40;;;5.50;99.90;;;;;;4919628;29;20558;-70
2023/03/14 13:09:49;;;;;;;0.30;0.30;;;5.50;99.90;;;;;;4923524;29;20214;-72
2023/03/14 13:12:19;;;;;;;0.30;0.30;;;5.60;99.90;;;;;;4911180;29;20233;-70
2023/03/14 13:14:48;;;;;;;0.20;0.20;;;5.70;99.90;;;;;;4919135;29;20242;-70
2023/03/14 13:17:20;;;;;;;0.45;0.45;;;5.80;99.90;;;;;;4922033;29;20221;-70
2023/03/14 13:19:53;;;;;;;0.10;0.10;;;5.70;99.90;;;;;;4920152;29;20233;-70
2023/03/14 13:22:24;;;;;;;0.52;0.52;;;5.80;99.90;;;;;;4919294;29;20238;-70
2023/03/14 13:24:51;;;;;;;0.10;0.10;;;5.80;99.90;;;;;;4917931;29;20289;-70
2023/03/14 13:27:23;;;;;;;0.60;0.47;;;5.90;99.90;;;;;;4912085;29;20247;-70
2023/03/14 13:29:51;;;;;;;0.40;0.40;;;6.00;99.90;;;;;;4916983;29;20672;-70
2023/03/14 13:32:21;;;;;;;0.20;0.20;;;6.00;99.90;;;;;;4917476;29;20231;-71
2023/03/14 13:34:49;;;;;;;0.20;0.20;;;6.10;99.90;;;;;;4923067;29;20318;-71
2023/03/14 13:37:17;;;;;;;1.40;0.50;;;6.10;99.90;;;;;;4916102;29;20475;-69
2023/03/14 13:39:49;;;;;;;0.30;0.30;;;6.10;99.90;;;;;;4925749;29;20317;-71
2023/03/14 13:42:17;;;;;;;0.20;0.20;;;6.10;99.90;;;;;;4924370;29;20311;-70
2023/03/14 13:44:47;;;;;;;0.75;0.75;;;6.10;99.90;;;;;;4915952;29;20580;-69
2023/03/14 13:47:17;;;;;;;0.30;0.30;;;6.00;99.90;;;;;;4914695;29;20219;-70
2023/03/14 13:49:45;;;;;;;0.30;0.30;;;5.90;99.90;;;;;;4909053;29;20211;-70
2023/03/14 13:52:28;;;;;;;1.60;0.30;;;5.80;99.90;;;;;;4914688;29;20235;-70
2023/03/14 13:54:56;;;;;;;16.73;1.38;;;5.80;99.90;;;;;;4914057;29;20206;-70
2023/03/14 13:57:23;;;;;;;10.88;1.95;;;5.80;99.90;;;;;;4919151;29;20222;-71
2023/03/14 14:00:05;;;;;;;2.28;0.60;;;5.90;99.90;;;;;;4907366;29;20223;-72
2023/03/14 14:02:33;;;;;;;0.82;0.82;;;5.90;99.90;;;;;;4915032;29;20241;-69
2023/03/14 14:05:00;;;;;;;2.60;0.60;;;6.00;99.90;;;;;;4907912;29;20298;-70
2023/03/14 14:07:27;;;;;;;10.80;0.93;;;6.10;99.90;;;;;;4914514;29;20210;-69
2023/03/14 14:09:54;;;;;;;16.58;2.72;;;6.20;99.90;;;;;;4908290;29;20207;-70
2023/03/14 14:12:27;;;;;;;0.20;0.20;;;6.30;99.90;;;;;;4917458;29;20634;-72
2023/03/14 14:14:58;;;;;;;0.75;0.75;;;6.40;99.90;;;;;;4923424;29;20686;-69
2023/03/14 14:17:32;;;;;;;0.10;0.10;;;6.50;99.90;;;;;;4911920;29;20675;-70
2023/03/14 14:19:59;;;;;;;0.43;0.40;;;6.50;99.90;;;;;;4906957;29;20294;-71
2023/03/14 14:22:27;;;;;;;0.20;0.20;;;6.50;99.90;;;;;;4922828;29;20227;-70
2023/03/14 14:24:54;;;;;;;4.60;1.10;;;6.50;99.90;;;;;;4916906;29;20206;-72
2023/03/14 14:27:31;;;;;;;0.40;0.40;;;6.60;99.90;;;;;;4914113;29;20231;-70
2023/03/14 14:29:59;;;;;;;0.45;0.45;;;6.60;99.90;;;;;;4928577;29;20782;-70
2023/03/14 14:32:34;;;;;;;0.90;0.90;;;6.60;99.90;;;;;;4921174;29;20226;-71
2023/03/14 14:35:03;;;;;;;0.20;0.20;;;6.60;99.90;;;;;;4912189;29;20244;-70
2023/03/14 14:37:31;;;;;;;0.20;0.20;;;6.70;99.90;;;;;;4926910;29;20242;-71
2023/03/14 14:40:00;;;;;;;0.65;0.20;;;6.70;99.90;;;;;;4920581;29;20237;-73
2023/03/14 14:42:29;;;;;;;0.95;0.63;;;6.70;99.90;;;;;;4915865;29;20603;-70
2023/03/14 14:44:58;;;;;;;0.35;0.35;;;6.70;99.90;;;;;;4915035;29;20216;-71
2023/03/14 14:47:28;;;;;;;0.25;0.25;;;6.70;99.90;;;;;;4912987;29;20223;-70
2023/03/14 14:49:59;;;;;;;0.38;0.20;;;6.60;99.90;;;;;;4913901;29;20594;-72
2023/03/14 14:52:37;;;;;;;3.55;0.88;;;6.50;99.90;;;;;;4919691;29;20230;-71
2023/03/14 14:55:13;;;;;;;0.10;0.10;;;6.50;99.90;;;;;;4918013;29;20214;-70
2023/03/14 14:57:42;;;;;;;0.10;0.10;;;6.50;99.90;;;;;;4914805;29;20212;-70
2023/03/14 15:00:18;;;;;;;0.10;0.10;;;6.50;99.90;;;;;;4913048;29;20361;-69
2023/03/14 15:02:51;;;;;;;0.47;0.47;;;6.50;99.90;;;;;;4919971;29;20202;-70
2023/03/14 15:05:19;;;;;;;0.30;0.30;;;6.50;99.90;;;;;;4919197;29;20671;-69
2023/03/14 15:07:47;;;;;;;0.20;0.20;;;6.60;99.90;;;;;;4904085;29;20222;-70
2023/03/14 15:10:16;;;;;;;0.10;0.10;;;6.60;99.90;;;;;;4925137;29;20214;-70
2023/03/14 15:12:42;;;;;;;0.60;0.60;;;6.50;99.90;;;;;;4915294;29;20202;-70
2023/03/14 15:15:11;;;;;;;4.70;0.40;;;6.50;99.90;;;;;;4920891;29;20218;-71
2023/03/14 15:17:39;;;;;;;1.95;0.40;;;6.50;99.90;;;;;;4918656;29;20213;-69
2023/03/14 15:20:13;;;;;;;0.20;0.20;;;6.50;99.90;;;;;;4928680;29;20226;-71
2023/03/14 15:22:39;;;;;;;0.20;0.20;;;6.40;99.90;;;;;;4910636;29;20230;-70
2023/03/14 15:25:07;;;;;;;0.60;0.60;;;6.40;99.90;;;;;;4913217;29;20222;-68
2023/03/14 15:27:34;;;;;;;15.52;1.00;;;6.50;99.90;;;;;;4910530;29;20230;-70
2023/03/14 15:30:01;;;;;;;0.10;0.10;;;6.50;99.90;;;;;;4909475;29;20209;-70
2023/03/14 15:32:28;;;;;;;0.10;0.10;;;6.40;99.90;;;;;;4914076;29;20238;-70
2023/03/14 15:34:55;;;;;;;2.60;1.20;;;6.40;99.90;;;;;;4921665;29;20277;-71
2023/03/14 15:37:24;;;;;;;0.10;0.10;;;6.40;99.90;;;;;;4929048;29;20230;-70
2023/03/14 15:39:50;;;;;;;0.20;0.20;;;6.40;99.90;;;;;;4918557;29;20233;-70
2023/03/14 15:42:17;;;;;;;0.45;0.45;;;6.40;99.90;;;;;;4935642;29;20298;-71
2023/03/14 15:44:44;;;;;;;0.30;0.30;;;6.40;99.90;;;;;;4925878;29;20226;-71
2023/03/14 15:47:11;;;;;;;0.10;0.10;;;6.30;99.90;;;;;;4925432;29;20255;-70
2023/03/14 15:49:38;;;;;;;0.50;0.50;;;6.30;99.90;;;;;;4910194;29;20215;-70
2023/03/14 15:52:07;;;;;;;4.13;1.50;;;6.30;99.90;;;;;;4936749;29;20225;-70
2023/03/14 15:54:35;;;;;;;0.20;0.20;;;6.30;99.90;;;;;;4930626;29;20229;-71
2023/03/14 15:57:02;;;;;;;0.70;0.55;;;6.30;99.90;;;;;;4916361;29;20222;-71
2023/03/14 15:59:29;;;;;;;1.58;0.22;;;6.30;99.90;;;;;;4919329;29;20233;-70
2023/03/14 16:01:55;;;;;;;0.20;0.20;;;6.30;99.90;;;;;;4912107;29;20291;-71
2023/03/14 16:04:22;;;;;;;7.05;1.35;;;6.30;99.90;;;;;;4911080;29;20225;-71
2023/03/14 16:06:49;;;;;;;0.63;0.45;;;6.30;99.90;;;;;;4919378;29;20683;-69
2023/03/14 16:09:16;;;;;;;0.30;0.30;;;6.30;99.90;;;;;;4928638;29;20209;-70
2023/03/14 16:11:46;;;;;;;0.20;0.20;;;6.30;99.90;;;;;;4924950;29;20229;-70
2023/03/14 16:14:12;;;;;;;0.35;0.35;;;6.30;99.90;;;;;;4918723;29;20262;-69
2023/03/14 16:16:39;;;;;;;0.77;0.77;;;6.20;99.90;;;;;;4909437;29;20204;-69
2023/03/14 16:19:07;;;;;;;0.30;0.30;;;6.20;99.90;;;;;;4904796;29;20215;-69
2023/03/14 16:21:34;;;;;;;0.20;0.20;;;6.20;99.90;;;;;;4917443;29;20258;-70
2023/03/14 16:24:02;;;;;;;0.88;0.52;;;6.20;99.90;;;;;;4917047;29;20218;-69
2023/03/14 16:26:28;;;;;;;0.20;0.20;;;6.20;99.90;;;;;;4925609;29;20305;-71
2023/03/14 16:28:56;;;;;;;2.67;0.90;;;6.20;99.90;;;;;;4926002;29;20211;-70
2023/03/14 16:31:24;;;;;;;0.20;0.20;;;6.20;99.90;;;;;;4920170;29;20730;-70
2023/03/14 16:33:51;;;;;;;0.10;0.10;;;6.20;99.90;;;;;;4919942;29;20848;-71
2023/03/14 16:36:18;;;;;;;2.75;0.35;;;6.10;99.90;;;;;;4920977;29;20215;-70
2023/03/14 16:38:46;;;;;;;3.25;0.57;;;6.00;99.90;;;;;;4920047;29;20211;-71
2023/03/14 16:41:14;;;;;;;0.25;0.25;;;6.00;99.90;;;;;;4921184;29;20282;-71
2023/03/14 16:43:42;;;;;;;18.58;0.85;;;5.90;99.90;;;;;;4919829;29;20392;-70
2023/03/14 16:46:13;;;;;;;1.05;1.02;;;5.90;99.90;;;;;;4915462;29;20222;-71
2023/03/14 16:48:40;;;;;;;0.20;0.20;;;5.90;99.90;;;;;;4918144;29;20232;-70
2023/03/14 16:51:07;;;;;;;0.22;0.22;;;5.90;99.90;;;;;;4914366;29;20606;-71
2023/03/14 16:53:34;;;;;;;0.50;0.50;;;5.90;99.90;;;;;;4919432;29;20240;-71
2023/03/14 16:56:01;;;;;;;0.25;0.25;;;5.90;99.90;;;;;;4923321;29;20222;-70
2023/03/14 16:58:29;;;;;;;1.33;0.88;;;5.90;99.90;;;;;;4920793;29;20329;-70
2023/03/14 17:00:57;;;;;;;1.10;0.55;;;5.80;99.90;;;;;;4917634;29;20230;-70
2023/03/14 17:03:26;;;;;;;0.30;0.30;;;5.90;99.90;;;;;;4909596;29;20214;-70
2023/03/14 17:05:53;;;;;;;0.20;0.20;;;5.80;99.90;;;;;;4912891;29;20660;-70
2023/03/14 17:08:21;;;;;;;0.25;0.25;;;5.80;99.90;;;;;;4923740;29;20206;-70
2023/03/14 17:10:48;;;;;;;0.22;0.22;;;5.80;99.90;;;;;;4923485;29;20660;-70
2023/03/14 17:13:15;;;;;;;0.20;0.20;;;5.70;99.90;;;;;;4922334;29;20207;-72
2023/03/14 17:15:45;;;;;;;5.82;0.30;;;5.70;99.90;;;;;;4930606;29;20218;-71
2023/03/14 17:18:12;;;;;;;0.40;0.40;;;5.70;99.90;;;;;;4919436;29;20217;-71
2023/03/14 17:20:41;;;;;;;0.10;0.10;;;5.60;99.90;;;;;;4925621;29;20242;-71
2023/03/14 17:23:07;;;;;;;0.50;0.50;;;5.60;99.90;;;;;;4919814;29;20214;-71
2023/03/14 17:25:36;;;;;;;3.40;0.45;;;5.50;99.90;;;;;;4924684;29;20219;-69
2023/03/14 17:28:03;;;;;;;0.30;0.30;;;5.50;99.90;;;;;;4921706;29;20218;-71
2023/03/14 17:30:30;;;;;;;2.67;1.10;;;5.40;99.90;;;;;;4928171;29;20206;-72
2023/03/14 17:32:57;;;;;;;2.75;0.65;;;5.40;99.90;;;;;;4927175;29;20285;-73
2023/03/14 17:35:24;;;;;;;0.40;0.40;;;5.30;99.90;;;;;;4927335;29;20206;-73
2023/03/14 17:37:52;;;;;;;0.22;0.22;;;5.30;99.90;;;;;;4919593;29;20298;-72
2023/03/14 17:40:19;;;;;;;0.50;0.50;;;5.30;99.90;;;;;;4926323;29;20578;-72
2023/03/14 17:42:45;;;;;;;0.50;0.50;;;5.30;99.90;;;;;;4914186;29;20210;-72
2023/03/14 17:45:12;;;;;;;0.20;0.20;;;5.20;99.90;;;;;;4920683;29;20215;-72
2023/03/14 17:47:39;;;;;;;0.20;0.20;;;5.20;99.90;;;;;;4932519;29;20222;-72
2023/03/14 17:50:07;;;;;;;1.33;0.75;;;5.20;99.90;;;;;;4912555;29;20208;-72
2023/03/14 17:52:34;;;;;;;1.65;0.73;;;5.20;99.90;;;;;;4925226;29;20237;-72
2023/03/14 17:55:03;;;;;;;1.40;0.82;;;5.10;99.90;;;;;;4920701;29;20206;-72
2023/03/14 17:57:30;;;;;;;0.25;0.25;;;5.10;99.90;;;;;;4929862;29;20218;-72
2023/03/14 17:59:57;;;;;;;0.20;0.20;;;5.00;99.90;;;;;;4929869;29;20219;-73
2023/03/14 18:02:25;;;;;;;2.25;0.63;;;5.00;99.90;;;;;;4926113;29;20252;-72
2023/03/14 18:04:53;;;;;;;2.25;2.05;;;4.90;99.90;;;;;;4927031;29;20554;-73